KELA

Eagle Lake Airport

Eagle Lake, Texas, USA
METAR KELA 231415Z AUTO 35006KT 1/4SM FG OVC002 12/12 A3020 RMK AO2 T01160116
Observed Flight Rules
Feb-23 @ 14:15 UTC (21 minutes ago) Instrument Flight Rules
Wind Visibility Clouds Conditions
350° at 6 knots 1/4 miles
  • Overcast at 200' AGL
  • Fog
Temperatures Readings
Current 12°C / 54°F
Dewpoint 12°C / 54°F
Humidity 100%
Altimeter 30.2" Hg
Pressure 1023 hPa
Elevation 56
METAR KELA 231415Z AUTO 35006KT 1/4SM FG OVC002 12/12 A3020 RMK AO2 T01160116
Observed Flight Rules
Feb-23 @ 14:15 UTC
(21 minutes ago)
LIFR
Wind Visibility
350° at 6 knots 1/4 miles
Clouds
  • Overcast at 200' AGL
Conditions
  • Fog
Temperature Dewpoint
12°C / 54°F 12°C / 54°F
Humidity Altimeter Pressure
100% 30.2" Hg 1023 hPa